Aérodrome :
LOGIN :

S'inscrire | Disclaimer

   EN    FR    IT 

 










Légende :    VFR   VFR Marginal   IFR   IFR Intensif   IFR Très Intensif
Visi : 
Plafond : 
>= 8 km
>= 3000ft
5 à 8 km
1000 à 3000 ft
1500m à 5 km
500 à 1000 ft
800 à 1500m
200 à 500 ft
< 800m
< 200 ft
Symboles :   Orages  Brouillard  Fortes neiges  Fortes précipitations  Vent > 20 kt
SIGMETs :   Divers  Orages  Givrage  Turbulence  Onde Orograph.  Cendres Volcan.






- Altitude de l'aérodrome : 194 ft
- Code IATA : ANE


LFJR - Angers Marcé

DERNIER METAR :
  • 190430Z AUTO 10001KT 1500 1100 R26/1600D BR SCT001 OVC040 M00/M00 Q1018

METARs EXPIRÉS :
  • 190400Z AUTO 00000KT 0900 0800 R26/1300N FZFG FEW001 OVC040 M00/M00 Q1018
  • 190330Z AUTO 00000KT 0550 R26/0900U FZFG VV/// M01/M01 Q1018
  • 190300Z AUTO 00000KT 0450 0400 R26/0550N FZFG VV/// M01/M01 Q1018
  • 190230Z AUTO 00000KT 0450 0400 R26/0650U FZFG VV/// M00/M00 Q1018
  • 190200Z AUTO 00000KT 0350 R26/0400D FZFG VV/// M00/M00 Q1018

Prévision TAF périmée.



MET'MAP, la Météo Aéronautique d'un coup d'oeil ! - Copyright ORBIFLY Décembre 2007 - Disclaimer

ORBIFLY MET'MAP TEAM :

Programmation & Développement : Alexandra Zaïnal
Conception & Développement : Baudouin d'Aumeries
Co-Programmation & Développement : Marc-Olivier Méhu
Soutien technique & logistique : Manuel Goepfert

Contact : metmap@orbifly.com




SOURCES & CREDITS :

   NOAA